sensor_id;sensor_type;location;lat;lon;timestamp;P1;durP1;ratioP1;P2;durP2;ratioP2
15952;SDS011;8075;47.766;8.846;2023-02-15T00:00:20;47.30;;;32.90;;
15952;SDS011;8075;47.766;8.846;2023-02-15T00:02:46;52.13;;;31.23;;
15952;SDS011;8075;47.766;8.846;2023-02-15T00:05:12;42.33;;;30.97;;
15952;SDS011;8075;47.766;8.846;2023-02-15T00:07:38;38.42;;;28.92;;
15952;SDS011;8075;47.766;8.846;2023-02-15T00:10:05;34.47;;;27.07;;
15952;SDS011;8075;47.766;8.846;2023-02-15T00:12:31;36.13;;;28.03;;
15952;SDS011;8075;47.766;8.846;2023-02-15T00:14:57;36.13;;;27.95;;
15952;SDS011;8075;47.766;8.846;2023-02-15T00:17:23;35.75;;;27.65;;
15952;SDS011;8075;47.766;8.846;2023-02-15T00:19:49;33.60;;;26.48;;
15952;SDS011;8075;47.766;8.846;2023-02-15T00:22:15;34.53;;;26.80;;
15952;SDS011;8075;47.766;8.846;2023-02-15T00:24:41;32.55;;;25.65;;
15952;SDS011;8075;47.766;8.846;2023-02-15T00:27:07;32.67;;;25.83;;
15952;SDS011;8075;47.766;8.846;2023-02-15T00:29:34;33.97;;;26.45;;
15952;SDS011;8075;47.766;8.846;2023-02-15T00:32:00;34.80;;;26.83;;
15952;SDS011;8075;47.766;8.846;2023-02-15T00:34:26;31.52;;;25.63;;
15952;SDS011;8075;47.766;8.846;2023-02-15T00:36:52;33.10;;;26.20;;
15952;SDS011;8075;47.766;8.846;2023-02-15T00:39:19;29.48;;;24.38;;
15952;SDS011;8075;47.766;8.846;2023-02-15T00:41:45;30.58;;;25.17;;
15952;SDS011;8075;47.766;8.846;2023-02-15T00:44:12;31.90;;;25.85;;
15952;SDS011;8075;47.766;8.846;2023-02-15T00:46:38;31.58;;;25.27;;
15952;SDS011;8075;47.766;8.846;2023-02-15T00:49:04;34.83;;;25.98;;
15952;SDS011;8075;47.766;8.846;2023-02-15T00:51:30;35.10;;;25.90;;
15952;SDS011;8075;47.766;8.846;2023-02-15T00:53:57;35.10;;;26.15;;
15952;SDS011;8075;47.766;8.846;2023-02-15T00:56:23;37.78;;;26.45;;
15952;SDS011;8075;47.766;8.846;2023-02-15T00:58:49;42.20;;;27.73;;
15952;SDS011;8075;47.766;8.846;2023-02-15T01:01:16;48.60;;;29.27;;
15952;SDS011;8075;47.766;8.846;2023-02-15T01:03:42;43.75;;;28.40;;
15952;SDS011;8075;47.766;8.846;2023-02-15T01:06:09;40.80;;;26.63;;
15952;SDS011;8075;47.766;8.846;2023-02-15T01:08:36;47.97;;;29.00;;
15952;SDS011;8075;47.766;8.846;2023-02-15T01:11:06;56.17;;;30.45;;
15952;SDS011;8075;47.766;8.846;2023-02-15T01:13:32;52.20;;;29.30;;
15952;SDS011;8075;47.766;8.846;2023-02-15T01:15:58;56.78;;;29.95;;
15952;SDS011;8075;47.766;8.846;2023-02-15T01:18:25;58.67;;;30.60;;
15952;SDS011;8075;47.766;8.846;2023-02-15T01:20:51;53.85;;;30.55;;
15952;SDS011;8075;47.766;8.846;2023-02-15T01:23:17;55.70;;;29.65;;
15952;SDS011;8075;47.766;8.846;2023-02-15T01:25:43;56.27;;;29.27;;
15952;SDS011;8075;47.766;8.846;2023-02-15T01:28:09;59.95;;;31.75;;
15952;SDS011;8075;47.766;8.846;2023-02-15T01:30:35;59.90;;;30.95;;
15952;SDS011;8075;47.766;8.846;2023-02-15T01:33:02;59.67;;;31.02;;
15952;SDS011;8075;47.766;8.846;2023-02-15T01:35:28;60.80;;;31.65;;
15952;SDS011;8075;47.766;8.846;2023-02-15T01:37:54;56.08;;;30.90;;
15952;SDS011;8075;47.766;8.846;2023-02-15T01:40:21;65.63;;;33.27;;
15952;SDS011;8075;47.766;8.846;2023-02-15T01:42:50;66.15;;;32.35;;
15952;SDS011;8075;47.766;8.846;2023-02-15T01:45:18;64.93;;;31.65;;
15952;SDS011;8075;47.766;8.846;2023-02-15T01:47:51;62.95;;;32.25;;
15952;SDS011;8075;47.766;8.846;2023-02-15T01:50:20;57.63;;;30.23;;
15952;SDS011;8075;47.766;8.846;2023-02-15T01:52:55;61.30;;;32.75;;
15952;SDS011;8075;47.766;8.846;2023-02-15T01:55:23;60.20;;;31.38;;
15952;SDS011;8075;47.766;8.846;2023-02-15T01:57:50;56.45;;;30.52;;
15952;SDS011;8075;47.766;8.846;2023-02-15T02:00:16;56.43;;;31.17;;
15952;SDS011;8075;47.766;8.846;2023-02-15T02:02:43;64.60;;;34.03;;
15952;SDS011;8075;47.766;8.846;2023-02-15T02:05:10;60.27;;;33.10;;
15952;SDS011;8075;47.766;8.846;2023-02-15T02:07:38;66.10;;;33.90;;
15952;SDS011;8075;47.766;8.846;2023-02-15T02:10:05;60.72;;;32.80;;
15952;SDS011;8075;47.766;8.846;2023-02-15T02:12:32;62.45;;;33.72;;
15952;SDS011;8075;47.766;8.846;2023-02-15T02:14:58;58.40;;;32.40;;
15952;SDS011;8075;47.766;8.846;2023-02-15T02:27:41;52.38;;;30.00;;
15952;SDS011;8075;47.766;8.846;2023-02-15T02:30:14;54.17;;;30.65;;
15952;SDS011;8075;47.766;8.846;2023-02-15T02:41:13;53.95;;;30.65;;
15952;SDS011;8075;47.766;8.846;2023-02-15T02:43:48;50.22;;;30.02;;
15952;SDS011;8075;47.766;8.846;2023-02-15T02:46:22;53.78;;;30.33;;
15952;SDS011;8075;47.766;8.846;2023-02-15T02:48:50;48.50;;;29.95;;
15952;SDS011;8075;47.766;8.846;2023-02-15T02:51:16;50.15;;;30.08;;
15952;SDS011;8075;47.766;8.846;2023-02-15T02:53:50;47.90;;;29.55;;
15952;SDS011;8075;47.766;8.846;2023-02-15T02:56:21;48.40;;;29.45;;
15952;SDS011;8075;47.766;8.846;2023-02-15T02:58:50;52.10;;;30.20;;
15952;SDS011;8075;47.766;8.846;2023-02-15T03:04:05;52.40;;;29.27;;
15952;SDS011;8075;47.766;8.846;2023-02-15T03:06:32;51.17;;;29.00;;
15952;SDS011;8075;47.766;8.846;2023-02-15T03:09:02;46.85;;;29.20;;
15952;SDS011;8075;47.766;8.846;2023-02-15T03:11:28;52.72;;;28.95;;
15952;SDS011;8075;47.766;8.846;2023-02-15T03:13:55;47.42;;;28.10;;
15952;SDS011;8075;47.766;8.846;2023-02-15T03:16:22;52.35;;;28.35;;
15952;SDS011;8075;47.766;8.846;2023-02-15T03:18:53;49.75;;;27.58;;
15952;SDS011;8075;47.766;8.846;2023-02-15T03:21:24;50.22;;;28.25;;
15952;SDS011;8075;47.766;8.846;2023-02-15T03:24:01;54.90;;;28.73;;
15952;SDS011;8075;47.766;8.846;2023-02-15T03:26:29;50.55;;;27.52;;
15952;SDS011;8075;47.766;8.846;2023-02-15T03:28:56;45.25;;;26.65;;
15952;SDS011;8075;47.766;8.846;2023-02-15T03:31:23;46.88;;;26.48;;
15952;SDS011;8075;47.766;8.846;2023-02-15T03:33:57;47.28;;;26.75;;
15952;SDS011;8075;47.766;8.846;2023-02-15T03:36:39;44.60;;;26.23;;
15952;SDS011;8075;47.766;8.846;2023-02-15T03:42:14;48.72;;;25.70;;
15952;SDS011;8075;47.766;8.846;2023-02-15T03:44:54;48.85;;;26.80;;
15952;SDS011;8075;47.766;8.846;2023-02-15T03:47:23;49.25;;;26.38;;
15952;SDS011;8075;47.766;8.846;2023-02-15T03:49:52;43.53;;;25.70;;
15952;SDS011;8075;47.766;8.846;2023-02-15T03:52:19;46.45;;;25.70;;
15952;SDS011;8075;47.766;8.846;2023-02-15T03:54:46;45.78;;;25.67;;
15952;SDS011;8075;47.766;8.846;2023-02-15T03:57:18;40.67;;;24.05;;
15952;SDS011;8075;47.766;8.846;2023-02-15T04:00:04;45.28;;;26.55;;
15952;SDS011;8075;47.766;8.846;2023-02-15T04:02:56;44.83;;;25.33;;
15952;SDS011;8075;47.766;8.846;2023-02-15T04:05:23;44.72;;;25.40;;
15952;SDS011;8075;47.766;8.846;2023-02-15T04:07:49;46.17;;;26.33;;
15952;SDS011;8075;47.766;8.846;2023-02-15T04:10:15;45.97;;;24.73;;
15952;SDS011;8075;47.766;8.846;2023-02-15T04:12:59;49.00;;;27.00;;
15952;SDS011;8075;47.766;8.846;2023-02-15T04:15:25;46.00;;;27.05;;
15952;SDS011;8075;47.766;8.846;2023-02-15T04:18:10;46.90;;;26.80;;
15952;SDS011;8075;47.766;8.846;2023-02-15T04:20:36;51.83;;;27.67;;
15952;SDS011;8075;47.766;8.846;2023-02-15T04:23:21;44.58;;;25.35;;
15952;SDS011;8075;47.766;8.846;2023-02-15T04:26:05;45.35;;;26.65;;
15952;SDS011;8075;47.766;8.846;2023-02-15T04:28:31;43.03;;;25.57;;
15952;SDS011;8075;47.766;8.846;2023-02-15T04:30:57;46.58;;;26.88;;
15952;SDS011;8075;47.766;8.846;2023-02-15T04:33:23;45.90;;;25.60;;
15952;SDS011;8075;47.766;8.846;2023-02-15T04:35:49;46.95;;;25.90;;
15952;SDS011;8075;47.766;8.846;2023-02-15T04:38:15;44.78;;;26.05;;
15952;SDS011;8075;47.766;8.846;2023-02-15T04:40:41;45.25;;;25.65;;
15952;SDS011;8075;47.766;8.846;2023-02-15T04:43:07;45.73;;;26.87;;
15952;SDS011;8075;47.766;8.846;2023-02-15T04:45:33;47.75;;;26.75;;
15952;SDS011;8075;47.766;8.846;2023-02-15T04:47:59;48.28;;;26.88;;
15952;SDS011;8075;47.766;8.846;2023-02-15T04:50:25;44.72;;;26.80;;
15952;SDS011;8075;47.766;8.846;2023-02-15T04:52:51;50.15;;;28.35;;
15952;SDS011;8075;47.766;8.846;2023-02-15T04:55:17;44.78;;;26.58;;
15952;SDS011;8075;47.766;8.846;2023-02-15T04:57:43;48.70;;;27.90;;
15952;SDS011;8075;47.766;8.846;2023-02-15T05:00:09;44.05;;;26.77;;
15952;SDS011;8075;47.766;8.846;2023-02-15T05:02:36;47.42;;;27.77;;
15952;SDS011;8075;47.766;8.846;2023-02-15T05:05:02;50.20;;;27.35;;
15952;SDS011;8075;47.766;8.846;2023-02-15T05:07:28;52.47;;;28.47;;
15952;SDS011;8075;47.766;8.846;2023-02-15T05:09:54;48.95;;;28.08;;
15952;SDS011;8075;47.766;8.846;2023-02-15T05:12:20;57.30;;;28.57;;
15952;SDS011;8075;47.766;8.846;2023-02-15T05:14:46;60.08;;;28.30;;
15952;SDS011;8075;47.766;8.846;2023-02-15T05:17:12;50.10;;;28.57;;
15952;SDS011;8075;47.766;8.846;2023-02-15T05:19:38;48.70;;;27.60;;
15952;SDS011;8075;47.766;8.846;2023-02-15T05:22:04;48.55;;;27.80;;
15952;SDS011;8075;47.766;8.846;2023-02-15T05:24:30;55.28;;;29.55;;
15952;SDS011;8075;47.766;8.846;2023-02-15T05:27:14;51.25;;;27.85;;
15952;SDS011;8075;47.766;8.846;2023-02-15T05:29:59;53.35;;;28.20;;
15952;SDS011;8075;47.766;8.846;2023-02-15T05:32:25;53.28;;;29.65;;
15952;SDS011;8075;47.766;8.846;2023-02-15T05:34:51;57.13;;;29.55;;
15952;SDS011;8075;47.766;8.846;2023-02-15T05:37:17;56.38;;;29.13;;
15952;SDS011;8075;47.766;8.846;2023-02-15T05:39:43;54.95;;;29.38;;
15952;SDS011;8075;47.766;8.846;2023-02-15T05:42:09;59.83;;;30.10;;
15952;SDS011;8075;47.766;8.846;2023-02-15T05:44:35;52.10;;;28.40;;
15952;SDS011;8075;47.766;8.846;2023-02-15T05:47:01;54.25;;;29.90;;
15952;SDS011;8075;47.766;8.846;2023-02-15T05:49:28;54.72;;;29.65;;
15952;SDS011;8075;47.766;8.846;2023-02-15T05:51:55;53.30;;;29.42;;
15952;SDS011;8075;47.766;8.846;2023-02-15T05:54:21;51.22;;;30.10;;
15952;SDS011;8075;47.766;8.846;2023-02-15T05:56:47;57.10;;;30.83;;
15952;SDS011;8075;47.766;8.846;2023-02-15T05:59:13;61.63;;;31.88;;
15952;SDS011;8075;47.766;8.846;2023-02-15T06:01:39;56.15;;;30.83;;
15952;SDS011;8075;47.766;8.846;2023-02-15T06:04:05;57.95;;;32.22;;
15952;SDS011;8075;47.766;8.846;2023-02-15T06:06:31;57.78;;;31.60;;
15952;SDS011;8075;47.766;8.846;2023-02-15T06:08:57;63.15;;;33.13;;
15952;SDS011;8075;47.766;8.846;2023-02-15T06:11:23;58.67;;;33.05;;
15952;SDS011;8075;47.766;8.846;2023-02-15T06:13:49;59.70;;;33.00;;
15952;SDS011;8075;47.766;8.846;2023-02-15T06:16:15;55.78;;;32.28;;
15952;SDS011;8075;47.766;8.846;2023-02-15T06:18:41;59.08;;;32.20;;
15952;SDS011;8075;47.766;8.846;2023-02-15T06:21:07;64.05;;;33.20;;
15952;SDS011;8075;47.766;8.846;2023-02-15T06:23:34;67.70;;;33.33;;
15952;SDS011;8075;47.766;8.846;2023-02-15T06:26:00;60.40;;;32.50;;
15952;SDS011;8075;47.766;8.846;2023-02-15T06:28:26;63.88;;;32.10;;
15952;SDS011;8075;47.766;8.846;2023-02-15T06:30:51;58.55;;;32.17;;
15952;SDS011;8075;47.766;8.846;2023-02-15T06:33:18;64.45;;;32.83;;
15952;SDS011;8075;47.766;8.846;2023-02-15T06:35:44;56.35;;;30.85;;
15952;SDS011;8075;47.766;8.846;2023-02-15T06:38:11;61.08;;;32.17;;
15952;SDS011;8075;47.766;8.846;2023-02-15T06:40:37;59.78;;;32.15;;
15952;SDS011;8075;47.766;8.846;2023-02-15T06:43:03;61.07;;;32.13;;
15952;SDS011;8075;47.766;8.846;2023-02-15T06:45:29;56.55;;;31.83;;
15952;SDS011;8075;47.766;8.846;2023-02-15T06:47:55;60.40;;;33.00;;
15952;SDS011;8075;47.766;8.846;2023-02-15T06:50:21;62.38;;;32.70;;
15952;SDS011;8075;47.766;8.846;2023-02-15T06:52:47;62.40;;;33.77;;
15952;SDS011;8075;47.766;8.846;2023-02-15T06:55:13;67.25;;;33.83;;
15952;SDS011;8075;47.766;8.846;2023-02-15T06:57:39;60.87;;;33.83;;
15952;SDS011;8075;47.766;8.846;2023-02-15T07:00:05;59.22;;;32.80;;
15952;SDS011;8075;47.766;8.846;2023-02-15T07:02:31;65.20;;;34.85;;
15952;SDS011;8075;47.766;8.846;2023-02-15T07:04:58;62.22;;;33.75;;
15952;SDS011;8075;47.766;8.846;2023-02-15T07:07:24;66.47;;;34.13;;
15952;SDS011;8075;47.766;8.846;2023-02-15T07:09:50;62.90;;;34.72;;
15952;SDS011;8075;47.766;8.846;2023-02-15T07:12:16;71.90;;;36.53;;
15952;SDS011;8075;47.766;8.846;2023-02-15T07:15:01;79.20;;;41.00;;
15952;SDS011;8075;47.766;8.846;2023-02-15T07:17:30;75.70;;;39.20;;
15952;SDS011;8075;47.766;8.846;2023-02-15T07:19:56;75.13;;;39.40;;
15952;SDS011;8075;47.766;8.846;2023-02-15T07:22:22;71.50;;;35.65;;
15952;SDS011;8075;47.766;8.846;2023-02-15T07:24:48;68.00;;;35.73;;
15952;SDS011;8075;47.766;8.846;2023-02-15T07:27:15;70.13;;;35.88;;
15952;SDS011;8075;47.766;8.846;2023-02-15T07:29:41;70.45;;;36.97;;
15952;SDS011;8075;47.766;8.846;2023-02-15T07:32:06;76.03;;;37.75;;
15952;SDS011;8075;47.766;8.846;2023-02-15T07:34:32;72.32;;;37.63;;
15952;SDS011;8075;47.766;8.846;2023-02-15T07:36:58;73.18;;;36.72;;
15952;SDS011;8075;47.766;8.846;2023-02-15T07:39:24;67.05;;;34.60;;
15952;SDS011;8075;47.766;8.846;2023-02-15T07:41:50;67.40;;;35.33;;
15952;SDS011;8075;47.766;8.846;2023-02-15T07:44:16;69.65;;;36.13;;
15952;SDS011;8075;47.766;8.846;2023-02-15T07:46:43;74.43;;;36.45;;
15952;SDS011;8075;47.766;8.846;2023-02-15T07:49:09;75.32;;;38.17;;
15952;SDS011;8075;47.766;8.846;2023-02-15T07:51:35;80.32;;;39.33;;
15952;SDS011;8075;47.766;8.846;2023-02-15T07:54:01;75.80;;;37.58;;
15952;SDS011;8075;47.766;8.846;2023-02-15T07:56:27;80.13;;;39.75;;
15952;SDS011;8075;47.766;8.846;2023-02-15T07:58:53;79.50;;;38.90;;
15952;SDS011;8075;47.766;8.846;2023-02-15T08:01:31;81.53;;;38.92;;
15952;SDS011;8075;47.766;8.846;2023-02-15T08:03:57;74.38;;;37.60;;
15952;SDS011;8075;47.766;8.846;2023-02-15T08:06:25;74.57;;;37.78;;
15952;SDS011;8075;47.766;8.846;2023-02-15T08:08:51;71.82;;;36.75;;
15952;SDS011;8075;47.766;8.846;2023-02-15T08:11:21;66.47;;;34.83;;
15952;SDS011;8075;47.766;8.846;2023-02-15T08:13:52;70.25;;;35.53;;
15952;SDS011;8075;47.766;8.846;2023-02-15T08:16:37;67.40;;;35.15;;
15952;SDS011;8075;47.766;8.846;2023-02-15T08:19:08;67.57;;;34.47;;
15952;SDS011;8075;47.766;8.846;2023-02-15T08:21:35;64.80;;;33.50;;
15952;SDS011;8075;47.766;8.846;2023-02-15T08:24:02;66.95;;;34.65;;
15952;SDS011;8075;47.766;8.846;2023-02-15T08:26:29;71.55;;;37.53;;
15952;SDS011;8075;47.766;8.846;2023-02-15T08:28:55;76.80;;;37.90;;
15952;SDS011;8075;47.766;8.846;2023-02-15T08:31:22;78.32;;;38.03;;
15952;SDS011;8075;47.766;8.846;2023-02-15T08:33:48;79.68;;;38.50;;
15952;SDS011;8075;47.766;8.846;2023-02-15T08:36:17;76.68;;;38.10;;
15952;SDS011;8075;47.766;8.846;2023-02-15T08:38:43;75.95;;;39.20;;
15952;SDS011;8075;47.766;8.846;2023-02-15T08:41:13;82.68;;;40.03;;
15952;SDS011;8075;47.766;8.846;2023-02-15T08:43:40;76.60;;;38.70;;
15952;SDS011;8075;47.766;8.846;2023-02-15T08:46:07;76.25;;;38.90;;
15952;SDS011;8075;47.766;8.846;2023-02-15T08:48:33;73.47;;;37.85;;
15952;SDS011;8075;47.766;8.846;2023-02-15T08:51:03;78.25;;;40.13;;
15952;SDS011;8075;47.766;8.846;2023-02-15T08:53:30;77.95;;;39.35;;
15952;SDS011;8075;47.766;8.846;2023-02-15T08:55:56;81.03;;;40.80;;
15952;SDS011;8075;47.766;8.846;2023-02-15T08:58:23;79.82;;;41.88;;
15952;SDS011;8075;47.766;8.846;2023-02-15T09:00:49;86.50;;;42.00;;
15952;SDS011;8075;47.766;8.846;2023-02-15T09:03:15;82.57;;;41.75;;
15952;SDS011;8075;47.766;8.846;2023-02-15T09:05:41;95.83;;;45.40;;
15952;SDS011;8075;47.766;8.846;2023-02-15T09:08:07;91.80;;;45.97;;
15952;SDS011;8075;47.766;8.846;2023-02-15T09:10:33;92.13;;;44.83;;
15952;SDS011;8075;47.766;8.846;2023-02-15T09:12:59;91.20;;;44.10;;
15952;SDS011;8075;47.766;8.846;2023-02-15T09:15:25;98.70;;;47.20;;
15952;SDS011;8075;47.766;8.846;2023-02-15T09:17:51;101.85;;;51.50;;
15952;SDS011;8075;47.766;8.846;2023-02-15T09:20:17;92.03;;;44.03;;
15952;SDS011;8075;47.766;8.846;2023-02-15T09:22:43;87.05;;;44.95;;
15952;SDS011;8075;47.766;8.846;2023-02-15T09:25:09;88.40;;;44.47;;
15952;SDS011;8075;47.766;8.846;2023-02-15T09:27:35;88.30;;;44.67;;
15952;SDS011;8075;47.766;8.846;2023-02-15T09:30:02;86.80;;;44.53;;
15952;SDS011;8075;47.766;8.846;2023-02-15T09:32:28;86.88;;;43.38;;
15952;SDS011;8075;47.766;8.846;2023-02-15T09:34:54;85.18;;;44.53;;
15952;SDS011;8075;47.766;8.846;2023-02-15T09:37:20;84.88;;;43.17;;
15952;SDS011;8075;47.766;8.846;2023-02-15T09:39:46;91.43;;;45.95;;
15952;SDS011;8075;47.766;8.846;2023-02-15T10:00:29;89.40;;;46.60;;
15952;SDS011;8075;47.766;8.846;2023-02-15T10:13:56;86.97;;;45.88;;
15952;SDS011;8075;47.766;8.846;2023-02-15T10:16:17;100.70;;;49.88;;
15952;SDS011;8075;47.766;8.846;2023-02-15T10:21:32;92.70;;;47.42;;
15952;SDS011;8075;47.766;8.846;2023-02-15T10:26:46;95.22;;;48.50;;
15952;SDS011;8075;47.766;8.846;2023-02-15T10:29:16;94.28;;;48.67;;
15952;SDS011;8075;47.766;8.846;2023-02-15T10:47:17;116.57;;;56.63;;
15952;SDS011;8075;47.766;8.846;2023-02-15T11:00:38;127.30;;;60.30;;
15952;SDS011;8075;47.766;8.846;2023-02-15T11:08:27;139.88;;;69.43;;
15952;SDS011;8075;47.766;8.846;2023-02-15T11:10:57;137.07;;;66.37;;
15952;SDS011;8075;47.766;8.846;2023-02-15T11:13:26;142.25;;;69.45;;
15952;SDS011;8075;47.766;8.846;2023-02-15T11:15:55;144.07;;;72.35;;
15952;SDS011;8075;47.766;8.846;2023-02-15T11:18:39;139.43;;;71.55;;
15952;SDS011;8075;47.766;8.846;2023-02-15T11:21:39;150.00;;;72.40;;
15952;SDS011;8075;47.766;8.846;2023-02-15T11:24:07;158.50;;;74.22;;
15952;SDS011;8075;47.766;8.846;2023-02-15T11:26:44;171.70;;;81.35;;
15952;SDS011;8075;47.766;8.846;2023-02-15T11:29:28;168.43;;;79.97;;
15952;SDS011;8075;47.766;8.846;2023-02-15T11:31:56;152.25;;;74.65;;
15952;SDS011;8075;47.766;8.846;2023-02-15T11:34:34;138.05;;;68.15;;
15952;SDS011;8075;47.766;8.846;2023-02-15T11:37:04;136.40;;;66.38;;
15952;SDS011;8075;47.766;8.846;2023-02-15T11:39:30;137.53;;;68.97;;
15952;SDS011;8075;47.766;8.846;2023-02-15T11:41:59;130.27;;;66.80;;
15952;SDS011;8075;47.766;8.846;2023-02-15T11:44:42;134.73;;;67.70;;
15952;SDS011;8075;47.766;8.846;2023-02-15T11:47:12;131.93;;;66.47;;
15952;SDS011;8075;47.766;8.846;2023-02-15T11:49:39;118.68;;;63.83;;
15952;SDS011;8075;47.766;8.846;2023-02-15T11:52:06;107.63;;;58.95;;
15952;SDS011;8075;47.766;8.846;2023-02-15T11:54:35;117.45;;;63.83;;
15952;SDS011;8075;47.766;8.846;2023-02-15T11:57:10;113.15;;;60.05;;
15952;SDS011;8075;47.766;8.846;2023-02-15T11:59:37;108.70;;;59.13;;
15952;SDS011;8075;47.766;8.846;2023-02-15T12:02:13;109.63;;;56.80;;
15952;SDS011;8075;47.766;8.846;2023-02-15T12:04:41;126.85;;;64.47;;
15952;SDS011;8075;47.766;8.846;2023-02-15T12:07:11;126.93;;;68.18;;
15952;SDS011;8075;47.766;8.846;2023-02-15T12:14:51;139.98;;;74.18;;
15952;SDS011;8075;47.766;8.846;2023-02-15T12:17:20;119.78;;;65.88;;
15952;SDS011;8075;47.766;8.846;2023-02-15T12:19:47;106.87;;;59.90;;
15952;SDS011;8075;47.766;8.846;2023-02-15T12:22:38;109.60;;;60.58;;
15952;SDS011;8075;47.766;8.846;2023-02-15T12:27:48;87.50;;;53.90;;
15952;SDS011;8075;47.766;8.846;2023-02-15T12:35:14;88.68;;;54.38;;
15952;SDS011;8075;47.766;8.846;2023-02-15T12:37:51;81.28;;;53.05;;
15952;SDS011;8075;47.766;8.846;2023-02-15T12:40:19;78.22;;;51.08;;
15952;SDS011;8075;47.766;8.846;2023-02-15T12:42:45;80.63;;;52.35;;
15952;SDS011;8075;47.766;8.846;2023-02-15T12:45:25;82.47;;;53.60;;
15952;SDS011;8075;47.766;8.846;2023-02-15T12:50:36;83.82;;;50.35;;
15952;SDS011;8075;47.766;8.846;2023-02-15T12:53:07;79.80;;;50.67;;
15952;SDS011;8075;47.766;8.846;2023-02-15T12:55:33;72.15;;;48.45;;
15952;SDS011;8075;47.766;8.846;2023-02-15T12:58:06;74.60;;;48.05;;
15952;SDS011;8075;47.766;8.846;2023-02-15T13:00:32;72.30;;;46.60;;
15952;SDS011;8075;47.766;8.846;2023-02-15T13:02:59;72.68;;;48.25;;
15952;SDS011;8075;47.766;8.846;2023-02-15T13:05:31;68.20;;;48.85;;
15952;SDS011;8075;47.766;8.846;2023-02-15T13:07:58;73.23;;;48.63;;
15952;SDS011;8075;47.766;8.846;2023-02-15T13:10:29;62.95;;;46.03;;
15952;SDS011;8075;47.766;8.846;2023-02-15T13:12:56;72.22;;;49.28;;
15952;SDS011;8075;47.766;8.846;2023-02-15T13:15:36;75.97;;;51.10;;
15952;SDS011;8075;47.766;8.846;2023-02-15T13:18:04;75.88;;;51.45;;
15952;SDS011;8075;47.766;8.846;2023-02-15T13:20:31;70.97;;;48.03;;
15952;SDS011;8075;47.766;8.846;2023-02-15T13:23:06;71.95;;;49.17;;
15952;SDS011;8075;47.766;8.846;2023-02-15T13:25:44;75.20;;;47.05;;
15952;SDS011;8075;47.766;8.846;2023-02-15T13:28:15;77.30;;;47.57;;
15952;SDS011;8075;47.766;8.846;2023-02-15T13:30:43;70.88;;;46.95;;
15952;SDS011;8075;47.766;8.846;2023-02-15T13:36:02;66.38;;;44.45;;
15952;SDS011;8075;47.766;8.846;2023-02-15T13:41:05;62.17;;;42.53;;
15952;SDS011;8075;47.766;8.846;2023-02-15T13:46:21;60.13;;;41.00;;
15952;SDS011;8075;47.766;8.846;2023-02-15T13:51:37;65.47;;;43.25;;
15952;SDS011;8075;47.766;8.846;2023-02-15T13:57:08;62.10;;;43.30;;
15952;SDS011;8075;47.766;8.846;2023-02-15T14:16:03;59.35;;;40.95;;
15952;SDS011;8075;47.766;8.846;2023-02-15T14:18:12;60.70;;;42.07;;
15952;SDS011;8075;47.766;8.846;2023-02-15T14:23:23;58.15;;;40.72;;
15952;SDS011;8075;47.766;8.846;2023-02-15T14:26:02;63.08;;;42.03;;
15952;SDS011;8075;47.766;8.846;2023-02-15T14:31:14;61.35;;;42.47;;
15952;SDS011;8075;47.766;8.846;2023-02-15T14:33:43;60.20;;;41.50;;
15952;SDS011;8075;47.766;8.846;2023-02-15T14:36:15;54.75;;;38.42;;
15952;SDS011;8075;47.766;8.846;2023-02-15T14:41:35;58.75;;;40.25;;
15952;SDS011;8075;47.766;8.846;2023-02-15T14:44:08;60.42;;;42.05;;
15952;SDS011;8075;47.766;8.846;2023-02-15T14:46:45;58.00;;;40.58;;
15952;SDS011;8075;47.766;8.846;2023-02-15T14:49:12;61.10;;;41.75;;
15952;SDS011;8075;47.766;8.846;2023-02-15T14:54:11;65.30;;;45.17;;
15952;SDS011;8075;47.766;8.846;2023-02-15T14:59:44;68.88;;;45.58;;
15952;SDS011;8075;47.766;8.846;2023-02-15T15:02:18;68.93;;;46.40;;
15952;SDS011;8075;47.766;8.846;2023-02-15T15:07:22;69.25;;;46.28;;
15952;SDS011;8075;47.766;8.846;2023-02-15T15:12:41;61.88;;;43.67;;
15952;SDS011;8075;47.766;8.846;2023-02-15T15:15:09;63.53;;;44.83;;
15952;SDS011;8075;47.766;8.846;2023-02-15T15:22:37;65.30;;;45.13;;
15952;SDS011;8075;47.766;8.846;2023-02-15T15:25:07;64.97;;;45.28;;
15952;SDS011;8075;47.766;8.846;2023-02-15T15:32:47;62.92;;;43.58;;
15952;SDS011;8075;47.766;8.846;2023-02-15T15:35:23;66.10;;;45.85;;
15952;SDS011;8075;47.766;8.846;2023-02-15T15:45:54;64.63;;;45.50;;
15952;SDS011;8075;47.766;8.846;2023-02-15T15:48:28;66.57;;;45.42;;
15952;SDS011;8075;47.766;8.846;2023-02-15T15:50:59;66.88;;;45.72;;
15952;SDS011;8075;47.766;8.846;2023-02-15T15:53:26;72.13;;;46.90;;
15952;SDS011;8075;47.766;8.846;2023-02-15T15:55:57;75.75;;;50.47;;
15952;SDS011;8075;47.766;8.846;2023-02-15T15:58:24;83.88;;;52.80;;
15952;SDS011;8075;47.766;8.846;2023-02-15T16:00:59;97.32;;;58.45;;
15952;SDS011;8075;47.766;8.846;2023-02-15T16:03:26;104.35;;;61.63;;
15952;SDS011;8075;47.766;8.846;2023-02-15T16:05:53;105.47;;;62.15;;
15952;SDS011;8075;47.766;8.846;2023-02-15T16:10:52;110.85;;;62.90;;
15952;SDS011;8075;47.766;8.846;2023-02-15T16:13:18;108.43;;;62.75;;
15952;SDS011;8075;47.766;8.846;2023-02-15T16:15:45;110.57;;;62.83;;
15952;SDS011;8075;47.766;8.846;2023-02-15T16:18:15;116.80;;;64.95;;
15952;SDS011;8075;47.766;8.846;2023-02-15T16:20:42;110.72;;;63.83;;
15952;SDS011;8075;47.766;8.846;2023-02-15T16:28:18;113.38;;;63.42;;
15952;SDS011;8075;47.766;8.846;2023-02-15T16:30:45;109.57;;;62.33;;
15952;SDS011;8075;47.766;8.846;2023-02-15T16:33:12;118.88;;;64.47;;
15952;SDS011;8075;47.766;8.846;2023-02-15T16:35:40;117.82;;;64.75;;
15952;SDS011;8075;47.766;8.846;2023-02-15T16:38:10;114.25;;;62.95;;
15952;SDS011;8075;47.766;8.846;2023-02-15T16:40:40;115.82;;;63.53;;
15952;SDS011;8075;47.766;8.846;2023-02-15T16:43:10;120.93;;;65.63;;
15952;SDS011;8075;47.766;8.846;2023-02-15T16:45:39;109.57;;;60.15;;
15952;SDS011;8075;47.766;8.846;2023-02-15T16:48:07;118.30;;;62.53;;
15952;SDS011;8075;47.766;8.846;2023-02-15T16:50:36;112.63;;;59.85;;
15952;SDS011;8075;47.766;8.846;2023-02-15T16:53:02;111.15;;;63.00;;
15952;SDS011;8075;47.766;8.846;2023-02-15T16:55:31;114.82;;;62.40;;
15952;SDS011;8075;47.766;8.846;2023-02-15T16:58:01;129.05;;;66.18;;
15952;SDS011;8075;47.766;8.846;2023-02-15T17:00:31;114.32;;;61.95;;
15952;SDS011;8075;47.766;8.846;2023-02-15T17:05:24;121.77;;;63.93;;
15952;SDS011;8075;47.766;8.846;2023-02-15T17:13:03;116.25;;;62.88;;
15952;SDS011;8075;47.766;8.846;2023-02-15T17:18:00;101.32;;;57.90;;
15952;SDS011;8075;47.766;8.846;2023-02-15T17:20:26;104.18;;;59.00;;
15952;SDS011;8075;47.766;8.846;2023-02-15T17:22:53;99.95;;;57.20;;
15952;SDS011;8075;47.766;8.846;2023-02-15T17:25:20;103.78;;;57.78;;
15952;SDS011;8075;47.766;8.846;2023-02-15T17:27:50;105.07;;;58.90;;
15952;SDS011;8075;47.766;8.846;2023-02-15T17:30:21;91.67;;;54.53;;
15952;SDS011;8075;47.766;8.846;2023-02-15T17:32:52;89.10;;;54.15;;
15952;SDS011;8075;47.766;8.846;2023-02-15T17:35:20;82.88;;;52.05;;
15952;SDS011;8075;47.766;8.846;2023-02-15T17:37:48;83.15;;;53.15;;
15952;SDS011;8075;47.766;8.846;2023-02-15T17:40:17;85.65;;;53.53;;
15952;SDS011;8075;47.766;8.846;2023-02-15T17:42:43;80.97;;;51.97;;
15952;SDS011;8075;47.766;8.846;2023-02-15T17:45:09;78.57;;;50.35;;
15952;SDS011;8075;47.766;8.846;2023-02-15T17:47:35;75.55;;;48.60;;
15952;SDS011;8075;47.766;8.846;2023-02-15T17:50:02;71.95;;;47.65;;
15952;SDS011;8075;47.766;8.846;2023-02-15T17:52:29;68.80;;;47.30;;